Terminal Aerodrome Forecast
Issued by NWS

Home | Current Version | Previous Version | Text Only | Print | Product List | Glossary On
Versions: 1 2 3 4 5 6 7 8 9 10 11 12 13 14 15 16 17 18 19 20 21 22 23 24 25 26 27 28 29 30 31 32 33 34
387
FTUS45 KGJT 171739
TAFRIL
TAF
KRIL 171739Z 1718/1818 32006KT P6SM VCSH BKN100 BKN120
     FM172000 23012G25KT P6SM VCSH FEW070 FEW150
      TEMPO 1720/1722 27015G30KT 6SM -TSRA BKN080CB
     FM172200 24012G28KT P6SM FEW080 FEW200
     FM180200 25006KT P6SM FEW100 FEW250=

USA.gov is the U.S. government's official web portal to all federal, state and local government web resources and services.